Time;durP1;ratioP1;P1;durP2;ratioP2;P2;SDS_P1;SDS_P2;PMS_P1;PMS_P2;Temp;Humidity;BMP_temperature;BMP_pressure;BME280_temperature;BME280_humidity;BME280_pressure;Samples;Min_cycle;Max_cycle;Signal;HPM_P1;HPM_P2
2021/06/27 00:02:13;;;;;;;16.33;14.57;;;19.40;99.90;;;;;;6109909;23;20163;-66
2021/06/27 00:04:39;;;;;;;15.23;13.63;;;19.30;99.90;;;;;;6099937;23;20195;-65
2021/06/27 00:07:04;;;;;;;17.43;15.03;;;19.20;99.90;;;;;;6109000;23;20160;-65
2021/06/27 00:09:30;;;;;;;17.47;14.53;;;19.30;99.90;;;;;;6108515;23;20196;-65
2021/06/27 00:11:56;;;;;;;16.77;14.97;;;19.30;99.90;;;;;;6109221;23;20187;-66
2021/06/27 00:14:22;;;;;;;16.33;14.63;;;19.30;99.90;;;;;;6099998;23;20172;-66
2021/06/27 00:16:52;;;;;;;15.20;13.43;;;19.20;99.90;;;;;;6099975;23;20460;-66
2021/06/27 00:19:18;;;;;;;14.30;12.80;;;19.30;99.90;;;;;;6108931;23;20392;-66
2021/06/27 00:21:43;;;;;;;17.27;13.90;;;19.30;74.60;;;;;;6109050;23;20399;-66
2021/06/27 00:24:09;;;;;;;17.13;13.60;;;19.20;57.10;;;;;;6099554;23;20420;-65
2021/06/27 00:26:35;;;;;;;14.53;13.03;;;18.90;33.40;;;;;;6122618;23;20210;-65
2021/06/27 00:29:00;;;;;;;15.13;13.53;;;19.00;99.90;;;;;;6109228;23;20246;-66
2021/06/27 00:31:26;;;;;;;14.60;13.03;;;18.90;99.90;;;;;;6109342;23;20151;-65
2021/06/27 00:33:51;;;;;;;15.73;13.77;;;18.90;99.90;;;;;;6099845;23;20177;-65
2021/06/27 00:36:17;;;;;;;17.37;13.90;;;19.00;99.90;;;;;;6109209;23;20474;-66
2021/06/27 00:38:43;;;;;;;15.20;13.60;;;19.10;94.20;;;;;;6109303;23;20183;-65
2021/06/27 00:41:08;;;;;;;15.93;13.90;;;19.00;89.20;;;;;;6109835;23;20249;-65
2021/06/27 00:43:34;;;;;;;17.63;13.53;;;19.10;93.30;;;;;;6109544;23;20579;-65
2021/06/27 00:46:00;;;;;;;14.27;12.77;;;18.90;57.70;;;;;;6109211;23;20507;-65
2021/06/27 00:48:26;;;;;;;17.50;14.53;;;18.90;99.90;;;;;;6097493;23;20176;-66
2021/06/27 00:50:54;;;;;;;15.70;14.03;;;19.00;99.90;;;;;;6108704;23;20521;-65
2021/06/27 00:53:20;;;;;;;15.50;13.90;;;19.00;99.90;;;;;;6098705;23;20173;-66
2021/06/27 00:55:54;;;;;;;14.37;12.77;;;19.00;99.90;;;;;;6099367;23;20462;-66
2021/06/27 00:58:25;;;;;;;15.40;13.80;;;19.00;70.20;;;;;;6108447;23;20380;-66
2021/06/27 01:00:51;;;;;;;15.50;13.90;;;19.10;55.00;;;;;;6123163;23;20701;-66
2021/06/27 01:03:17;;;;;;;14.40;12.90;;;19.10;52.00;;;;;;6109118;23;20384;-66
2021/06/27 01:05:42;;;;;;;14.40;12.90;;;19.10;37.90;;;;;;6122801;23;20411;-66
2021/06/27 01:08:08;;;;;;;15.83;12.90;;;19.00;79.00;;;;;;6099525;23;20170;-66
2021/06/27 01:10:35;;;;;;;15.70;12.97;;;19.00;67.50;;;;;;6109207;23;20183;-66
2021/06/27 01:13:01;;;;;;;14.73;13.20;;;19.00;64.30;;;;;;6097724;23;20708;-65
2021/06/27 01:15:27;;;;;;;14.00;12.43;;;18.90;46.20;;;;;;6099035;23;20396;-65
2021/06/27 01:17:54;;;;;;;14.43;12.53;;;18.80;99.90;;;;;;6108658;23;20383;-65
2021/06/27 01:20:22;;;;;;;16.33;14.20;;;18.80;99.90;;;;;;6108643;23;20400;-65
2021/06/27 01:22:49;;;;;;;16.17;13.20;;;18.80;99.90;;;;;;6109086;23;20392;-65
2021/06/27 01:25:19;;;;;;;15.60;13.80;;;18.80;99.90;;;;;;6108762;23;20422;-65
2021/06/27 01:27:45;;;;;;;15.20;13.60;;;18.80;99.90;;;;;;6108485;23;20376;-66
2021/06/27 01:30:12;;;;;;;17.13;12.43;;;18.60;99.90;;;;;;6108748;23;20430;-65
2021/06/27 01:32:40;;;;;;;15.57;13.03;;;18.60;99.90;;;;;;6099323;23;20414;-65
2021/06/27 01:35:10;;;;;;;15.10;13.33;;;18.50;99.90;;;;;;6097726;23;20411;-65
2021/06/27 01:37:37;;;;;;;16.63;13.63;;;18.50;99.90;;;;;;6108368;23;20376;-65
2021/06/27 01:40:05;;;;;;;22.00;13.17;;;18.60;99.90;;;;;;6107946;23;20391;-65
2021/06/27 01:42:30;;;;;;;15.70;13.30;;;18.40;99.90;;;;;;6108303;23;20395;-65
2021/06/27 01:44:56;;;;;;;15.33;12.70;;;18.50;99.90;;;;;;6108400;23;20407;-65
2021/06/27 01:47:28;;;;;;;15.63;13.70;;;18.50;99.90;;;;;;6108055;23;20230;-66
2021/06/27 01:49:55;;;;;;;13.90;12.23;;;18.60;99.90;;;;;;6107914;23;20176;-65
2021/06/27 01:52:21;;;;;;;14.50;12.73;;;18.60;99.90;;;;;;6108029;23;20399;-65
2021/06/27 01:54:47;;;;;;;14.43;12.93;;;18.60;99.90;;;;;;6108028;23;20403;-65
2021/06/27 01:57:20;;;;;;;16.70;14.30;;;18.60;99.90;;;;;;6107990;23;20399;-65
2021/06/27 01:59:50;;;;;;;16.00;13.87;;;18.60;99.90;;;;;;6107840;23;20170;-65
2021/06/27 02:02:16;;;;;;;18.07;13.97;;;18.60;99.90;;;;;;6108051;23;20843;-66
2021/06/27 02:04:42;;;;;;;17.03;15.33;;;18.50;99.90;;;;;;6107989;23;20387;-66
2021/06/27 02:07:08;;;;;;;13.93;12.53;;;18.50;99.90;;;;;;6107796;23;20531;-65
2021/06/27 02:09:34;;;;;;;18.60;13.80;;;18.60;99.90;;;;;;6106776;23;20267;-65
2021/06/27 02:11:59;;;;;;;16.40;13.37;;;18.60;97.90;;;;;;6107875;23;20392;-65
2021/06/27 02:14:25;;;;;;;16.97;15.17;;;18.60;98.60;;;;;;6098053;23;20247;-66
2021/06/27 02:16:51;;;;;;;14.97;13.40;;;18.50;99.80;;;;;;6107743;23;20555;-65
2021/06/27 02:19:16;;;;;;;15.30;13.70;;;18.40;99.90;;;;;;6107643;23;20504;-65
2021/06/27 02:21:42;;;;;;;13.80;12.37;;;18.40;99.90;;;;;;6107747;23;20175;-65
2021/06/27 02:24:08;;;;;;;15.43;13.70;;;18.30;99.90;;;;;;6107539;23;20173;-65
2021/06/27 02:26:34;;;;;;;14.90;13.30;;;18.20;99.90;;;;;;6107537;23;20611;-65
2021/06/27 02:29:03;;;;;;;16.03;12.87;;;18.30;99.90;;;;;;6107472;23;20466;-65
2021/06/27 02:31:31;;;;;;;14.37;12.93;;;18.30;99.90;;;;;;6096663;23;20676;-65
2021/06/27 02:33:57;;;;;;;14.40;13.00;;;18.30;99.90;;;;;;6107543;23;20395;-66
2021/06/27 02:36:23;;;;;;;15.63;14.03;;;18.30;99.90;;;;;;6107631;23;20388;-65
2021/06/27 02:38:49;;;;;;;15.00;13.43;;;18.50;99.90;;;;;;6107371;23;20402;-65
2021/06/27 02:41:15;;;;;;;16.33;14.33;;;18.40;99.90;;;;;;6098209;23;20583;-65
2021/06/27 02:43:41;;;;;;;17.13;12.60;;;18.50;99.90;;;;;;6098279;23;20163;-66
2021/06/27 02:46:08;;;;;;;15.27;13.70;;;18.60;99.90;;;;;;6107794;23;20877;-66
2021/06/27 02:48:34;;;;;;;15.03;12.33;;;18.70;99.90;;;;;;6107508;23;20843;-65
2021/06/27 02:51:00;;;;;;;14.77;12.67;;;18.60;99.90;;;;;;6107384;23;20441;-66
2021/06/27 02:53:25;;;;;;;17.30;13.37;;;18.60;99.90;;;;;;6107728;23;20383;-65
2021/06/27 02:56:06;;;;;;;14.20;12.70;;;18.70;99.90;;;;;;6096687;23;20159;-66
2021/06/27 02:58:46;;;;;;;14.13;12.60;;;18.70;99.90;;;;;;6097703;23;20167;-65
2021/06/27 03:01:12;;;;;;;13.07;11.73;;;18.80;99.90;;;;;;6107547;23;20430;-66
2021/06/27 03:03:40;;;;;;;13.27;11.87;;;18.80;80.40;;;;;;6107560;23;20403;-65
2021/06/27 03:06:06;;;;;;;13.57;11.90;;;18.60;59.30;;;;;;6120896;23;20410;-65
2021/06/27 03:08:32;;;;;;;13.27;11.87;;;18.60;67.30;;;;;;6096172;23;20702;-65
2021/06/27 03:10:59;;;;;;;14.10;12.37;;;18.60;92.80;;;;;;6097867;23;20431;-65
2021/06/27 03:13:25;;;;;;;15.73;13.30;;;18.70;38.40;;;;;;6107504;23;20458;-66
2021/06/27 03:15:51;;;;;;;16.97;12.93;;;18.90;10.90;;;;;;6107503;23;20850;-66
2021/06/27 03:18:17;;;;;;;14.00;12.50;;;19.00;1.00;;;;;;6120534;23;20471;-66
2021/06/27 03:20:43;;;;;;;12.23;10.97;;;19.10;1.00;;;;;;6107356;23;20855;-66
2021/06/27 03:23:10;;;;;;;13.60;12.20;;;19.10;1.00;;;;;;6107732;23;20164;-66
2021/06/27 03:25:35;;;;;;;12.80;11.50;;;19.10;1.00;;;;;;6097687;23;20731;-66
2021/06/27 03:28:02;;;;;;;14.50;12.40;;;19.30;1.00;;;;;;6097584;23;20415;-66
2021/06/27 03:30:28;;;;;;;13.03;11.73;;;19.30;1.00;;;;;;6107937;23;20179;-67
2021/06/27 03:32:55;;;;;;;15.07;13.30;;;19.20;1.00;;;;;;6108154;23;20388;-68
2021/06/27 03:35:21;;;;;;;14.57;13.13;;;19.20;1.00;;;;;;6108141;23;20411;-67
2021/06/27 03:37:53;;;;;;;16.00;12.30;;;19.10;1.00;;;;;;6096407;23;20407;-66
2021/06/27 03:40:20;;;;;;;14.23;12.00;;;19.00;1.00;;;;;;6097578;23;20685;-67
2021/06/27 03:42:47;;;;;;;15.03;13.33;;;19.00;1.00;;;;;;6097315;23;20711;-67
2021/06/27 03:45:14;;;;;;;14.37;12.50;;;19.10;1.00;;;;;;6099026;23;20392;-67
2021/06/27 03:47:40;;;;;;;13.97;12.40;;;18.90;1.00;;;;;;6107784;23;20485;-67
2021/06/27 03:50:06;;;;;;;15.40;13.40;;;18.90;1.00;;;;;;6108847;23;20431;-67
2021/06/27 03:52:32;;;;;;;17.13;13.20;;;19.00;1.00;;;;;;6109058;23;20398;-67
2021/06/27 03:54:58;;;;;;;15.90;13.90;;;19.10;1.00;;;;;;6109005;23;20226;-66
2021/06/27 03:57:23;;;;;;;15.23;12.67;;;19.20;1.00;;;;;;6108843;23;20562;-66
2021/06/27 03:59:48;;;;;;;14.70;12.30;;;19.40;1.00;;;;;;6122147;23;20171;-66
2021/06/27 04:02:14;;;;;;;14.43;12.27;;;19.50;1.00;;;;;;6108830;23;20225;-66
2021/06/27 04:04:40;;;;;;;15.67;13.63;;;19.50;99.90;;;;;;6108810;23;20215;-66
2021/06/27 04:07:05;;;;;;;15.07;12.67;;;19.70;99.90;;;;;;6108653;23;20234;-66
2021/06/27 04:09:31;;;;;;;21.40;12.23;;;19.90;1.00;;;;;;6108489;23;20183;-67
2021/06/27 04:11:56;;;;;;;16.03;13.60;;;19.80;99.90;;;;;;6108821;23;20163;-67
2021/06/27 04:14:22;;;;;;;14.17;12.70;;;19.60;99.90;;;;;;6108762;23;20155;-67
2021/06/27 04:16:47;;;;;;;16.27;13.30;;;19.80;1.00;;;;;;6108604;23;20552;-67
2021/06/27 04:19:13;;;;;;;14.70;12.80;;;20.00;1.00;;;;;;6108486;23;20457;-66
2021/06/27 04:21:38;;;;;;;14.07;12.63;;;20.20;1.00;;;;;;6108698;23;20160;-64
2021/06/27 04:24:04;;;;;;;14.60;13.10;;;20.20;99.90;;;;;;6109121;23;20155;-67
2021/06/27 04:26:30;;;;;;;14.67;12.30;;;20.20;99.90;;;;;;6108583;23;20182;-67
2021/06/27 04:28:56;;;;;;;15.03;13.37;;;20.20;99.90;;;;;;6122043;23;20403;-68
2021/06/27 04:31:21;;;;;;;16.70;14.00;;;20.20;99.90;;;;;;6098996;23;20508;-67
2021/06/27 04:33:47;;;;;;;15.40;13.00;;;20.30;99.90;;;;;;6121951;23;20159;-67
2021/06/27 04:36:12;;;;;;;15.30;12.93;;;20.10;99.90;;;;;;6108446;23;20156;-67
2021/06/27 04:38:38;;;;;;;14.57;13.07;;;19.40;1.00;;;;;;6098914;23;20160;-67
2021/06/27 04:41:03;;;;;;;15.37;13.57;;;19.50;99.90;;;;;;6108548;23;20474;-67
2021/06/27 04:43:29;;;;;;;18.47;15.27;;;19.70;1.00;;;;;;6108533;23;20156;-67
2021/06/27 04:45:55;;;;;;;16.40;13.60;;;19.90;1.00;;;;;;6108409;23;20233;-67
2021/06/27 04:48:20;;;;;;;15.93;14.00;;;19.90;1.00;;;;;;6121480;23;20483;-67
2021/06/27 04:50:47;;;;;;;19.20;15.17;;;19.70;1.00;;;;;;6108213;23;20580;-67
2021/06/27 04:53:14;;;;;;;14.97;13.47;;;19.80;1.00;;;;;;6098564;23;20155;-67
2021/06/27 04:55:40;;;;;;;18.87;15.03;;;20.10;1.00;;;;;;6107865;23;20388;-67
2021/06/27 04:58:05;;;;;;;16.90;14.43;;;20.30;99.90;;;;;;6107963;23;20423;-67
2021/06/27 05:00:31;;;;;;;16.40;14.00;;;20.30;99.90;;;;;;6108010;23;20167;-67
2021/06/27 05:02:56;;;;;;;19.53;15.87;;;20.30;99.90;;;;;;6108043;23;20170;-67
2021/06/27 05:05:22;;;;;;;16.30;14.20;;;20.50;99.90;;;;;;6108079;23;20167;-67
2021/06/27 05:07:48;;;;;;;19.43;14.77;;;20.50;99.90;;;;;;6107975;23;20170;-65
2021/06/27 05:10:14;;;;;;;17.03;15.23;;;20.60;91.10;;;;;;6107884;23;20188;-67
2021/06/27 05:12:39;;;;;;;19.00;15.57;;;20.60;80.80;;;;;;6107959;23;20159;-68
2021/06/27 05:15:06;;;;;;;17.33;15.30;;;20.50;99.90;;;;;;6108054;23;20392;-67
2021/06/27 05:17:31;;;;;;;16.37;13.90;;;20.40;99.90;;;;;;6107829;23;20579;-67
2021/06/27 05:19:57;;;;;;;16.80;14.37;;;20.40;99.90;;;;;;6107809;23;20402;-67
2021/06/27 05:22:22;;;;;;;17.53;13.90;;;20.60;99.90;;;;;;6108161;23;20232;-67
2021/06/27 05:24:48;;;;;;;17.97;14.43;;;20.60;99.90;;;;;;6107882;23;20171;-67
2021/06/27 05:27:14;;;;;;;20.53;16.40;;;20.90;99.90;;;;;;6121257;23;20164;-68
2021/06/27 05:29:39;;;;;;;15.23;13.63;;;21.00;42.70;;;;;;6098202;23;20475;-67
2021/06/27 05:32:05;;;;;;;15.90;14.30;;;21.30;1.00;;;;;;6108019;23;20151;-67
2021/06/27 05:34:31;;;;;;;16.90;14.20;;;21.20;13.40;;;;;;6107951;23;20219;-67
2021/06/27 05:36:59;;;;;;;16.23;14.20;;;21.70;1.00;;;;;;6107755;23;20486;-68
2021/06/27 05:39:25;;;;;;;16.63;14.70;;;22.10;1.00;;;;;;6107777;23;20263;-67
2021/06/27 05:41:52;;;;;;;15.27;13.67;;;22.10;1.00;;;;;;6107947;23;20421;-67
2021/06/27 05:44:19;;;;;;;15.07;13.47;;;22.10;1.00;;;;;;6098384;23;20406;-67
2021/06/27 05:46:45;;;;;;;15.93;14.33;;;21.50;1.00;;;;;;6098402;23;20689;-67
2021/06/27 05:49:11;;;;;;;16.37;13.23;;;21.70;1.00;;;;;;6107564;23;20427;-67
2021/06/27 05:51:37;;;;;;;14.70;13.10;;;22.20;1.00;;;;;;6107766;23;20426;-67
2021/06/27 05:54:04;;;;;;;14.77;13.10;;;22.70;1.00;;;;;;6098376;23;20505;-67
2021/06/27 05:56:30;;;;;;;14.90;13.40;;;23.00;1.00;;;;;;6097904;23;20866;-66
2021/06/27 05:58:55;;;;;;;13.63;12.07;;;23.20;1.00;;;;;;6107525;23;20392;-66
2021/06/27 06:01:21;;;;;;;15.83;13.00;;;23.80;1.00;;;;;;6107607;23;20156;-66
2021/06/27 06:03:46;;;;;;;15.20;13.60;;;24.40;1.00;;;;;;6107693;23;20187;-66
2021/06/27 06:06:13;;;;;;;15.20;13.60;;;24.40;1.00;;;;;;6107798;23;20215;-66
2021/06/27 06:08:41;;;;;;;16.40;13.73;;;23.90;1.00;;;;;;6097238;23;20223;-66
2021/06/27 06:11:11;;;;;;;14.40;12.60;;;23.60;1.00;;;;;;6097969;23;20424;-67
2021/06/27 06:13:38;;;;;;;16.47;13.57;;;23.90;1.00;;;;;;6107665;23;20870;-68
2021/06/27 06:16:04;;;;;;;14.80;13.30;;;25.30;1.00;;;;;;6096672;23;20482;-68
2021/06/27 06:18:31;;;;;;;13.83;12.40;;;26.70;1.00;;;;;;6106856;23;20516;-69
2021/06/27 06:20:56;;;;;;;14.77;13.07;;;28.00;1.00;;;;;;6107198;23;20458;-68
2021/06/27 06:23:22;;;;;;;13.53;12.13;;;27.40;1.00;;;;;;6107281;23;20819;-69
2021/06/27 06:25:48;;;;;;;15.73;14.10;;;26.20;1.00;;;;;;6107151;23;20255;-66
2021/06/27 06:28:13;;;;;;;14.40;12.97;;;26.70;1.00;;;;;;6120731;23;20171;-67
2021/06/27 06:30:39;;;;;;;14.63;13.23;;;26.90;1.00;;;;;;6107636;23;20606;-67
2021/06/27 06:33:10;;;;;;;15.73;14.13;;;27.10;1.00;;;;;;6107367;23;20166;-69
2021/06/27 06:35:42;;;;;;;16.20;14.50;;;26.60;1.00;;;;;;6098020;23;20299;-68
2021/06/27 06:38:09;;;;;;;15.53;12.63;;;26.70;1.00;;;;;;6106929;23;20386;-69
2021/06/27 06:40:37;;;;;;;13.57;12.13;;;27.20;1.00;;;;;;6097903;23;20690;-69
2021/06/27 06:43:03;;;;;;;14.30;12.83;;;27.60;1.00;;;;;;6098141;23;20434;-68
2021/06/27 06:45:29;;;;;;;12.70;11.40;;;27.50;1.00;;;;;;6107522;23;20391;-68
2021/06/27 06:47:55;;;;;;;11.40;10.30;;;27.30;1.00;;;;;;6107453;23;20391;-66
2021/06/27 06:50:21;;;;;;;12.07;10.93;;;27.30;1.00;;;;;;6097689;23;20428;-66
2021/06/27 06:52:47;;;;;;;13.77;10.33;;;28.60;1.00;;;;;;6107002;23;20396;-67
2021/06/27 06:55:13;;;;;;;13.23;11.93;;;30.70;1.00;;;;;;6106220;23;20491;-66
2021/06/27 06:57:38;;;;;;;12.20;10.90;;;31.90;1.00;;;;;;6107154;23;20219;-67
2021/06/27 07:00:06;;;;;;;11.13;10.13;;;32.60;1.00;;;;;;6107573;23;20166;-67
2021/06/27 07:02:31;;;;;;;10.63;9.63;;;32.50;1.00;;;;;;6121130;23;20160;-68
2021/06/27 07:04:58;;;;;;;10.43;9.43;;;33.10;1.00;;;;;;6098392;23;20406;-70
2021/06/27 07:07:23;;;;;;;12.17;11.00;;;32.70;1.00;;;;;;6121252;23;20168;-68
2021/06/27 07:09:49;;;;;;;12.53;11.27;;;32.50;1.00;;;;;;6107285;23;20430;-67
2021/06/27 07:12:15;;;;;;;12.40;11.20;;;30.40;1.00;;;;;;6107448;23;20187;-67
2021/06/27 07:14:40;;;;;;;13.53;12.17;;;28.80;1.00;;;;;;6097801;23;20160;-68
2021/06/27 07:17:06;;;;;;;14.07;12.67;;;28.10;1.00;;;;;;6107181;23;20701;-67
2021/06/27 07:19:31;;;;;;;14.10;11.60;;;29.50;1.00;;;;;;6108479;23;20159;-67
2021/06/27 07:21:57;;;;;;;13.10;11.20;;;28.90;1.00;;;;;;6100473;23;20174;-67
2021/06/27 07:24:22;;;;;;;12.73;11.53;;;30.30;1.00;;;;;;6100354;23;20432;-68
2021/06/27 07:26:48;;;;;;;11.60;10.50;;;31.50;1.00;;;;;;6109830;23;20219;-67
2021/06/27 07:29:14;;;;;;;12.70;11.50;;;32.60;1.00;;;;;;6099710;23;20164;-68
2021/06/27 07:31:40;;;;;;;12.83;10.30;;;34.30;1.00;;;;;;6109747;23;20218;-67
2021/06/27 07:34:05;;;;;;;11.80;10.60;;;34.90;1.00;;;;;;6109816;23;20206;-67
2021/06/27 07:36:31;;;;;;;11.60;10.50;;;33.00;1.00;;;;;;6109739;23;20151;-70
2021/06/27 07:38:56;;;;;;;12.80;11.63;;;31.80;1.00;;;;;;6109350;23;20156;-70
2021/06/27 07:41:22;;;;;;;13.70;12.30;;;30.30;1.00;;;;;;6122584;23;20168;-70
2021/06/27 07:43:51;;;;;;;14.33;12.83;;;29.40;1.00;;;;;;6122536;23;20198;-68
2021/06/27 07:46:17;;;;;;;13.33;11.93;;;27.40;1.00;;;;;;6099989;23;20179;-67
2021/06/27 07:48:43;;;;;;;13.00;11.70;;;26.60;1.00;;;;;;6097929;23;20680;-69
2021/06/27 07:51:09;;;;;;;13.67;12.00;;;26.10;1.00;;;;;;6108967;23;20465;-69
2021/06/27 07:53:35;;;;;;;12.67;11.00;;;25.90;1.00;;;;;;6109146;23;20163;-70
2021/06/27 07:56:01;;;;;;;12.20;11.00;;;26.20;1.00;;;;;;6109205;23;20387;-70
2021/06/27 07:58:26;;;;;;;12.87;11.60;;;25.80;1.00;;;;;;6109118;23;20214;-66
2021/06/27 08:00:52;;;;;;;12.90;11.60;;;25.70;1.00;;;;;;6098096;23;20160;-66
2021/06/27 08:03:17;;;;;;;14.07;12.57;;;25.00;1.00;;;;;;6108809;23;20218;-65
2021/06/27 08:05:43;;;;;;;14.17;10.60;;;24.60;1.00;;;;;;6099243;23;20251;-69
2021/06/27 08:08:08;;;;;;;11.80;10.53;;;24.10;1.00;;;;;;6099173;23;20191;-70
2021/06/27 08:10:34;;;;;;;13.00;11.60;;;24.30;1.00;;;;;;6108905;23;20476;-70
2021/06/27 08:13:00;;;;;;;12.47;11.17;;;24.40;1.00;;;;;;6100584;23;20155;-67
2021/06/27 08:15:26;;;;;;;12.57;11.23;;;24.80;1.00;;;;;;6108689;23;20163;-65
2021/06/27 08:17:52;;;;;;;11.90;10.37;;;25.30;1.00;;;;;;6108744;23;20419;-65
2021/06/27 08:20:20;;;;;;;12.33;10.47;;;25.40;1.00;;;;;;6108791;23;20230;-67
2021/06/27 08:22:46;;;;;;;14.63;11.83;;;25.30;1.00;;;;;;6097939;23;20395;-67
2021/06/27 08:25:12;;;;;;;13.50;12.20;;;25.40;1.00;;;;;;6108934;23;20418;-65
2021/06/27 08:27:38;;;;;;;12.47;11.17;;;25.00;1.00;;;;;;6108303;23;20160;-69
2021/06/27 08:30:07;;;;;;;11.37;10.23;;;24.90;1.00;;;;;;6108495;23;20438;-65
2021/06/27 08:32:34;;;;;;;12.80;11.60;;;24.80;1.00;;;;;;6108464;23;20402;-67
2021/06/27 08:34:59;;;;;;;13.30;11.70;;;24.60;1.00;;;;;;6099299;23;20387;-67
2021/06/27 08:37:28;;;;;;;13.20;11.80;;;24.40;1.00;;;;;;6108716;23;20819;-68
2021/06/27 08:39:54;;;;;;;12.63;11.13;;;24.00;1.00;;;;;;6108501;23;20162;-66
2021/06/27 08:42:20;;;;;;;12.33;11.13;;;24.00;1.00;;;;;;6108583;23;20392;-67
2021/06/27 08:44:49;;;;;;;12.53;10.50;;;24.20;1.00;;;;;;6107534;23;20166;-67
2021/06/27 08:47:16;;;;;;;10.47;9.40;;;24.50;1.00;;;;;;6108488;23;20392;-66
2021/06/27 08:49:46;;;;;;;11.00;9.90;;;25.10;1.00;;;;;;6098835;23;20499;-66
2021/06/27 08:52:16;;;;;;;10.60;9.50;;;25.10;1.00;;;;;;6108533;23;20394;-66
2021/06/27 08:54:44;;;;;;;11.20;10.00;;;25.00;1.00;;;;;;6097418;23;20396;-66
2021/06/27 08:57:10;;;;;;;11.63;10.00;;;24.90;1.00;;;;;;6097539;23;20679;-66
2021/06/27 08:59:36;;;;;;;13.30;11.73;;;25.20;1.00;;;;;;6098299;23;20406;-67
2021/06/27 09:02:02;;;;;;;11.57;10.47;;;25.10;1.00;;;;;;6108875;23;20391;-69
2021/06/27 09:04:28;;;;;;;12.37;11.17;;;24.70;1.00;;;;;;6108265;23;20166;-69
2021/06/27 09:06:53;;;;;;;12.37;11.13;;;24.50;1.00;;;;;;6108301;23;20171;-67
2021/06/27 09:09:20;;;;;;;11.60;9.63;;;24.50;1.00;;;;;;6108089;23;20445;-68
2021/06/27 09:12:03;;;;;;;10.50;9.40;;;24.50;1.00;;;;;;6108250;23;20581;-68
2021/06/27 09:14:30;;;;;;;11.33;10.17;;;24.10;1.00;;;;;;6097669;23;20401;-68
2021/06/27 09:17:05;;;;;;;11.90;10.70;;;24.30;1.00;;;;;;6108233;23;20407;-69
2021/06/27 09:19:31;;;;;;;9.83;8.90;;;24.40;1.00;;;;;;6108332;23;20387;-69
2021/06/27 09:22:11;;;;;;;10.03;9.03;;;25.00;1.00;;;;;;6108429;23;20692;-70
2021/06/27 09:24:36;;;;;;;11.40;10.30;;;25.10;1.00;;;;;;6121553;23;20190;-69
2021/06/27 09:27:16;;;;;;;11.97;10.20;;;24.80;1.00;;;;;;6108160;23;20388;-70
2021/06/27 09:29:42;;;;;;;12.93;9.80;;;25.20;1.00;;;;;;6096879;23;20180;-69
2021/06/27 09:32:24;;;;;;;10.33;9.23;;;25.30;1.00;;;;;;6122280;23;20462;-70
2021/06/27 09:34:51;;;;;;;9.87;8.87;;;25.80;1.00;;;;;;6108171;23;20376;-64
2021/06/27 09:37:27;;;;;;;9.13;8.33;;;26.10;1.00;;;;;;6098394;23;20479;-65
2021/06/27 09:40:01;;;;;;;9.00;8.00;;;26.00;1.00;;;;;;6108105;23;20380;-64
2021/06/27 09:42:28;;;;;;;9.23;8.33;;;26.10;1.00;;;;;;6098599;23;20390;-66
2021/06/27 09:45:09;;;;;;;10.13;9.00;;;26.20;1.00;;;;;;6108311;23;20391;-64
2021/06/27 09:47:35;;;;;;;10.77;8.70;;;25.50;1.00;;;;;;6108126;23;20388;-64
2021/06/27 09:50:27;;;;;;;8.90;8.00;;;25.40;1.00;;;;;;6121234;23;20591;-65
2021/06/27 09:52:52;;;;;;;7.77;7.07;;;25.20;1.00;;;;;;6108004;23;20383;-67
2021/06/27 09:55:18;;;;;;;8.53;7.73;;;25.60;1.00;;;;;;6107869;23;20384;-67
2021/06/27 09:57:44;;;;;;;9.83;8.93;;;25.30;1.00;;;;;;6098330;23;20174;-65
2021/06/27 10:00:21;;;;;;;11.13;10.10;;;25.40;1.00;;;;;;6107791;23;20695;-65
2021/06/27 10:03:04;;;;;;;9.10;8.17;;;25.50;1.00;;;;;;6107886;23;20167;-66
2021/06/27 10:05:30;;;;;;;11.50;10.17;;;25.60;1.00;;;;;;6107620;23;20483;-66
2021/06/27 10:07:56;;;;;;;10.27;9.27;;;25.70;1.00;;;;;;6098154;23;20446;-64
2021/06/27 10:10:22;;;;;;;10.33;9.30;;;26.00;1.00;;;;;;6107514;23;20510;-64
2021/06/27 10:12:47;;;;;;;8.93;8.03;;;26.50;1.00;;;;;;6098489;23;20449;-64
2021/06/27 10:15:15;;;;;;;11.17;10.07;;;26.80;1.00;;;;;;6107716;23;20147;-64
2021/06/27 10:17:44;;;;;;;8.67;7.87;;;26.40;1.00;;;;;;6098311;23;20169;-64
2021/06/27 10:20:12;;;;;;;11.90;10.70;;;26.30;1.00;;;;;;6098095;23;20406;-64
2021/06/27 10:22:38;;;;;;;9.53;8.63;;;25.90;1.00;;;;;;6107539;23;20475;-64
2021/06/27 10:25:07;;;;;;;10.60;9.43;;;25.90;1.00;;;;;;6107495;23;20514;-64
2021/06/27 10:27:33;;;;;;;11.80;10.60;;;25.60;1.00;;;;;;6098171;23;20475;-68
2021/06/27 10:30:01;;;;;;;10.30;9.20;;;25.30;1.00;;;;;;6096488;23;20453;-68
2021/06/27 10:32:27;;;;;;;8.17;7.43;;;25.10;1.00;;;;;;6107555;23;20398;-68
2021/06/27 10:34:55;;;;;;;9.30;8.40;;;25.60;1.00;;;;;;6107412;23;20705;-68
2021/06/27 10:37:44;;;;;;;9.33;8.17;;;25.80;1.00;;;;;;6098304;23;20424;-68
2021/06/27 10:40:15;;;;;;;9.63;8.73;;;26.70;1.00;;;;;;6107613;23;20415;-66
2021/06/27 10:42:50;;;;;;;7.63;6.80;;;27.10;1.00;;;;;;6107544;23;20399;-68
2021/06/27 10:45:17;;;;;;;7.30;6.60;;;27.60;1.00;;;;;;6098014;23;20423;-68
2021/06/27 10:47:43;;;;;;;7.23;6.53;;;27.80;1.00;;;;;;6098071;23;20399;-67
2021/06/27 10:50:11;;;;;;;8.77;7.90;;;27.20;1.00;;;;;;6106991;23;20878;-67
2021/06/27 10:52:58;;;;;;;8.53;7.70;;;26.50;1.00;;;;;;6107184;23;20250;-68
2021/06/27 10:55:29;;;;;;;5.60;5.10;;;26.80;1.00;;;;;;6107337;23;20380;-67
2021/06/27 10:58:34;;;;;;;7.30;6.40;;;26.30;1.00;;;;;;6107558;23;20505;-65
2021/06/27 11:01:02;;;;;;;5.20;4.70;;;26.00;1.00;;;;;;6096496;23;20391;-65
2021/06/27 11:03:29;;;;;;;6.30;5.80;;;26.50;1.00;;;;;;6107026;23;20387;-69
2021/06/27 11:05:59;;;;;;;7.30;6.63;;;26.60;1.00;;;;;;6120733;23;20403;-69
2021/06/27 11:08:37;;;;;;;6.10;5.50;;;26.10;1.00;;;;;;6106803;23;20449;-68
2021/06/27 11:11:19;;;;;;;7.00;6.30;;;26.40;1.00;;;;;;6107654;23;20443;-71
2021/06/27 11:14:11;;;;;;;6.43;5.80;;;26.60;1.00;;;;;;6098058;23;20460;-71
2021/06/27 11:17:00;;;;;;;7.00;5.87;;;26.60;1.00;;;;;;6096061;23;20396;-71
2021/06/27 11:19:29;;;;;;;5.97;5.30;;;26.30;1.00;;;;;;6107086;23;20403;-70
2021/06/27 11:22:21;;;;;;;6.97;5.77;;;26.40;1.00;;;;;;6107036;23;20810;-65
2021/06/27 11:24:53;;;;;;;4.13;3.73;;;26.90;1.00;;;;;;6091993;23;20460;-65
2021/06/27 11:27:34;;;;;;;3.10;2.90;;;26.60;1.00;;;;;;6106844;23;20379;-65
2021/06/27 11:30:19;;;;;;;2.90;2.70;;;26.50;1.00;;;;;;6106966;23;20723;-65
2021/06/27 11:32:45;;;;;;;3.83;3.53;;;26.90;1.00;;;;;;6106547;23;20379;-66
2021/06/27 11:35:31;;;;;;;4.93;4.53;;;27.50;1.00;;;;;;6107190;23;20399;-65
2021/06/27 11:37:56;;;;;;;5.03;4.63;;;27.90;1.00;;;;;;6106933;23;20833;-66
2021/06/27 11:40:44;;;;;;;4.83;4.40;;;28.80;1.00;;;;;;6106948;23;20391;-68
2021/06/27 11:43:10;;;;;;;6.20;4.50;;;29.20;1.00;;;;;;6107207;23;20144;-69
2021/06/27 11:45:41;;;;;;;8.17;5.13;;;28.40;1.00;;;;;;6106984;23;20402;-69
2021/06/27 11:48:09;;;;;;;5.10;4.60;;;28.50;1.00;;;;;;6097120;23;20567;-67
2021/06/27 11:50:39;;;;;;;8.13;7.43;;;29.20;1.00;;;;;;6097728;23;20467;-69
2021/06/27 11:53:10;;;;;;;6.67;6.10;;;29.20;1.00;;;;;;6107204;23;20745;-69
2021/06/27 11:55:40;;;;;;;4.90;4.50;;;28.80;1.00;;;;;;6107376;23;20388;-68
2021/06/27 11:58:15;;;;;;;4.80;4.40;;;28.20;1.00;;;;;;6106971;23;20698;-68
2021/06/27 12:00:46;;;;;;;7.23;6.23;;;28.30;1.00;;;;;;6106997;23;20518;-68
2021/06/27 12:03:14;;;;;;;5.43;4.43;;;27.80;1.00;;;;;;6097441;23;20673;-68
2021/06/27 12:05:49;;;;;;;4.17;3.87;;;27.70;1.00;;;;;;6097578;23;20395;-68
2021/06/27 12:08:15;;;;;;;5.03;4.63;;;26.70;1.00;;;;;;6122023;23;20398;-68
2021/06/27 12:10:52;;;;;;;7.27;6.23;;;26.30;1.00;;;;;;6108826;23;20462;-69
2021/06/27 12:13:20;;;;;;;5.00;4.60;;;26.80;1.00;;;;;;6108777;23;20379;-68
2021/06/27 12:15:58;;;;;;;4.53;4.13;;;26.30;1.00;;;;;;6108800;23;20383;-69
2021/06/27 12:18:29;;;;;;;3.60;3.03;;;26.60;1.00;;;;;;6108603;23;20376;-68
2021/06/27 12:21:08;;;;;;;2.90;2.70;;;27.10;1.00;;;;;;6107669;23;20474;-69
2021/06/27 12:23:40;;;;;;;3.73;3.00;;;27.10;1.00;;;;;;6122160;23;20407;-69
2021/06/27 12:26:18;;;;;;;5.80;5.10;;;27.10;1.00;;;;;;6108659;23;20407;-69
2021/06/27 12:28:52;;;;;;;3.70;3.23;;;27.50;1.00;;;;;;6098667;23;20387;-69
2021/06/27 12:31:21;;;;;;;3.27;2.63;;;27.70;1.00;;;;;;6108508;23;20443;-68
2021/06/27 12:34:13;;;;;;;3.03;2.73;;;27.80;1.00;;;;;;6108437;23;20405;-69
2021/06/27 12:36:47;;;;;;;2.67;2.47;;;27.20;1.00;;;;;;6098525;23;20383;-68
2021/06/27 12:39:21;;;;;;;4.90;2.97;;;27.00;1.00;;;;;;6098752;23;20367;-69
2021/06/27 12:42:05;;;;;;;3.43;3.13;;;27.60;1.00;;;;;;6121832;23;20424;-69
2021/06/27 12:44:31;;;;;;;2.80;2.50;;;28.00;1.00;;;;;;6108425;23;20368;-68